Time,TemperatureF,DewpointF,PressureIn,WindDirection,WindDirectionDegrees,WindSpeedMPH,WindSpeedGustMPH,Humidity,HourlyPrecipIn,Conditions,Clouds,dailyrainin,SoftwareType,DateUTC
2013-04-03 00:09:00,34.4,27.9,29.95,ESE,107,1.0,1.0,77,0.00,,,0.00,Wunderground v.1.15,2013-04-03 06:09:00,
2013-04-03 00:19:00,33.9,27.8,29.95,ESE,107,0.0,0.0,78,0.00,,,0.00,Wunderground v.1.15,2013-04-03 06:19:00,
2013-04-03 00:24:00,33.5,27.4,29.94,ESE,107,0.0,0.0,78,0.00,,,0.00,Wunderground v.1.15,2013-04-03 06:24:00,
2013-04-03 00:29:00,33.1,27.0,29.94,ESE,107,0.0,0.0,78,0.00,,,0.00,Wunderground v.1.15,2013-04-03 06:29:00,
2013-04-03 00:34:00,32.9,27.1,29.94,ESE,107,0.0,0.0,79,0.00,,,0.00,Wunderground v.1.15,2013-04-03 06:34:00,
2013-04-03 00:39:00,32.5,26.7,29.95,ESE,107,0.0,0.0,79,0.00,,,0.00,Wunderground v.1.15,2013-04-03 06:39:00,
2013-04-03 00:44:00,32.3,26.8,29.95,ESE,107,0.0,0.0,80,0.00,,,0.00,Wunderground v.1.15,2013-04-03 06:44:00,
2013-04-03 00:49:00,32.3,26.8,29.95,ESE,107,0.0,0.0,80,0.00,,,0.00,Wunderground v.1.15,2013-04-03 06:49:00,
2013-04-03 00:59:00,32.4,26.9,29.95,ESE,107,0.0,0.0,80,0.00,,,0.00,Wunderground v.1.15,2013-04-03 06:59:00,
2013-04-03 01:09:00,32.8,27.3,29.96,ESE,107,0.0,0.0,80,0.00,,,0.00,Wunderground v.1.15,2013-04-03 07:09:00,
2013-04-03 01:19:00,33.0,27.5,29.96,ESE,107,0.0,0.0,80,0.00,,,0.00,Wunderground v.1.15,2013-04-03 07:19:00,
2013-04-03 01:24:00,33.1,27.6,29.96,SSE,150,0.0,0.0,80,0.00,,,0.00,Wunderground v.1.15,2013-04-03 07:24:00,
2013-04-03 01:29:00,33.2,27.7,29.96,SSE,150,0.0,0.0,80,0.00,,,0.00,Wunderground v.1.15,2013-04-03 07:29:00,
2013-04-03 01:39:00,33.2,27.4,29.96,SW,220,0.0,0.0,79,0.00,,,0.00,Wunderground v.1.15,2013-04-03 07:39:00,
2013-04-03 01:44:00,33.1,27.3,29.96,SW,220,0.0,0.0,79,0.00,,,0.00,Wunderground v.1.15,2013-04-03 07:44:00,
2013-04-03 01:54:00,33.0,27.2,29.96,SW,217,0.0,0.0,79,0.00,,,0.00,Wunderground v.1.15,2013-04-03 07:54:00,
2013-04-03 02:00:00,33.1,27.3,29.96,ESE,114,0.0,0.0,79,0.00,,,0.00,Wunderground v.1.15,2013-04-03 08:00:00,
2013-04-03 02:09:00,33.1,27.3,29.96,East,96,0.0,0.0,79,0.00,,,0.00,Wunderground v.1.15,2013-04-03 08:09:00,
2013-04-03 02:14:00,33.0,27.5,29.96,East,96,0.0,0.0,80,0.00,,,0.00,Wunderground v.1.15,2013-04-03 08:14:00,
2013-04-03 02:19:00,32.8,27.3,29.96,East,100,0.0,0.0,80,0.00,,,0.00,Wunderground v.1.15,2013-04-03 08:19:00,
2013-04-03 02:29:00,32.6,27.1,29.96,East,99,0.0,0.0,80,0.00,,,0.00,Wunderground v.1.15,2013-04-03 08:29:00,
2013-04-03 02:39:00,32.4,27.2,29.96,East,99,0.0,0.0,81,0.00,,,0.00,Wunderground v.1.15,2013-04-03 08:39:00,
2013-04-03 02:44:00,32.4,27.2,29.95,East,99,0.0,0.0,81,0.00,,,0.00,Wunderground v.1.15,2013-04-03 08:44:00,
2013-04-03 02:49:00,32.2,27.0,29.95,East,99,0.0,0.0,81,0.00,,,0.00,Wunderground v.1.15,2013-04-03 08:49:00,
2013-04-03 02:54:00,31.9,26.7,29.96,East,99,0.0,0.0,81,0.00,,,0.00,Wunderground v.1.15,2013-04-03 08:54:00,
2013-04-03 02:59:00,31.5,26.3,29.96,East,99,0.0,0.0,81,0.00,,,0.00,Wunderground v.1.15,2013-04-03 08:59:00,
2013-04-03 03:09:00,30.5,26.0,29.96,East,99,0.0,0.0,83,0.00,,,0.00,Wunderground v.1.15,2013-04-03 09:09:00,
2013-04-03 03:14:00,30.2,25.9,29.96,East,99,0.0,0.0,84,0.00,,,0.00,Wunderground v.1.15,2013-04-03 09:14:00,
2013-04-03 03:19:00,30.1,25.8,29.96,East,99,0.0,0.0,84,0.00,,,0.00,Wunderground v.1.15,2013-04-03 09:19:00,
2013-04-03 03:24:00,30.0,25.8,29.96,East,99,0.0,0.0,84,0.00,,,0.00,Wunderground v.1.15,2013-04-03 09:24:00,
2013-04-03 03:34:00,29.7,25.5,29.96,East,99,0.0,0.0,84,0.00,,,0.00,Wunderground v.1.15,2013-04-03 09:34:00,
2013-04-03 03:44:00,29.3,25.6,29.96,East,99,0.0,0.0,86,0.00,,,0.00,Wunderground v.1.15,2013-04-03 09:44:00,
2013-04-03 03:49:00,29.0,25.3,29.96,East,99,0.0,0.0,86,0.00,,,0.00,Wunderground v.1.15,2013-04-03 09:49:00,
2013-04-03 03:54:00,29.0,25.3,29.96,East,99,0.0,0.0,86,0.00,,,0.00,Wunderground v.1.15,2013-04-03 09:54:00,
2013-04-03 03:59:00,29.0,25.3,29.96,East,99,0.0,0.0,86,0.00,,,0.00,Wunderground v.1.15,2013-04-03 09:59:00,
2013-04-03 04:09:00,29.0,25.3,29.96,East,99,0.0,0.0,86,0.00,,,0.00,Wunderground v.1.15,2013-04-03 10:09:00,
2013-04-03 04:14:00,29.0,25.3,29.96,East,99,0.0,0.0,86,0.00,,,0.00,Wunderground v.1.15,2013-04-03 10:14:00,
2013-04-03 04:24:00,28.7,25.0,29.96,East,99,0.0,0.0,86,0.00,,,0.00,Wunderground v.1.15,2013-04-03 10:24:00,
2013-04-03 04:29:00,28.5,24.8,29.96,East,99,0.0,0.0,86,0.00,,,0.00,Wunderground v.1.15,2013-04-03 10:29:00,
2013-04-03 04:34:00,28.7,25.0,29.97,East,99,0.0,0.0,86,0.00,,,0.00,Wunderground v.1.15,2013-04-03 10:34:00,
2013-04-03 04:39:00,28.4,24.7,29.96,East,99,0.0,0.0,86,0.00,,,0.00,Wunderground v.1.15,2013-04-03 10:39:00,
2013-04-03 04:49:00,28.2,24.8,29.97,East,99,0.0,0.0,87,0.00,,,0.00,Wunderground v.1.15,2013-04-03 10:49:00,
2013-04-03 04:59:00,27.9,24.5,29.97,East,99,0.0,0.0,87,0.00,,,0.00,Wunderground v.1.15,2013-04-03 10:59:00,
2013-04-03 05:09:00,27.7,24.3,29.97,East,99,0.0,0.0,87,0.00,,,0.00,Wunderground v.1.15,2013-04-03 11:09:00,
2013-04-03 05:14:00,27.6,24.5,29.98,East,99,0.0,0.0,88,0.00,,,0.00,Wunderground v.1.15,2013-04-03 11:14:00,
2013-04-03 05:19:00,27.4,24.0,29.98,East,99,0.0,0.0,87,0.00,,,0.00,Wunderground v.1.15,2013-04-03 11:19:00,
2013-04-03 05:29:00,27.0,23.9,29.98,East,99,0.0,0.0,88,0.00,,,0.00,Wunderground v.1.15,2013-04-03 11:29:00,
2013-04-03 05:39:00,26.9,23.5,29.98,East,99,0.0,0.0,87,0.00,,,0.00,Wunderground v.1.15,2013-04-03 11:39:00,
2013-04-03 05:44:00,27.0,23.9,29.98,East,99,0.0,0.0,88,0.00,,,0.00,Wunderground v.1.15,2013-04-03 11:44:00,
2013-04-03 05:49:00,26.8,23.4,29.98,East,99,0.0,0.0,87,0.00,,,0.00,Wunderground v.1.15,2013-04-03 11:49:00,
2013-04-03 05:54:00,26.6,23.5,29.98,East,99,0.0,0.0,88,0.00,,,0.00,Wunderground v.1.15,2013-04-03 11:54:00,
2013-04-03 05:59:00,26.5,23.4,29.98,East,99,0.0,0.0,88,0.00,,,0.00,Wunderground v.1.15,2013-04-03 11:59:00,
2013-04-03 06:09:00,26.3,23.5,29.99,East,99,0.0,0.0,89,0.00,,,0.00,Wunderground v.1.15,2013-04-03 12:09:00,
2013-04-03 06:14:00,26.3,23.2,29.99,East,99,0.0,0.0,88,0.00,,,0.00,Wunderground v.1.15,2013-04-03 12:14:00,
2013-04-03 06:19:00,26.2,23.1,30.00,East,99,0.0,0.0,88,0.00,,,0.00,Wunderground v.1.15,2013-04-03 12:19:00,
2013-04-03 06:24:00,26.1,23.0,30.00,East,99,0.0,0.0,88,0.00,,,0.00,Wunderground v.1.15,2013-04-03 12:24:00,
2013-04-03 06:34:00,25.9,22.8,30.01,East,99,0.0,0.0,88,0.00,,,0.00,Wunderground v.1.15,2013-04-03 12:34:00,
2013-04-03 06:44:00,26.2,23.1,30.01,East,99,0.0,0.0,88,0.00,,,0.00,Wunderground v.1.15,2013-04-03 12:44:00,
2013-04-03 06:49:00,26.4,23.6,30.01,East,99,0.0,0.0,89,0.00,,,0.00,Wunderground v.1.15,2013-04-03 12:49:00,
2013-04-03 06:54:00,26.6,23.5,30.01,East,99,0.0,0.0,88,0.00,,,0.00,Wunderground v.1.15,2013-04-03 12:54:00,
2013-04-03 07:00:00,26.8,23.7,30.01,East,99,0.0,0.0,88,0.00,,,0.00,Wunderground v.1.15,2013-04-03 13:00:00,
2013-04-03 07:09:00,27.0,23.6,30.02,East,99,0.0,0.0,87,0.00,,,0.00,Wunderground v.1.15,2013-04-03 13:09:00,
2013-04-03 07:19:00,27.1,23.5,30.02,East,99,0.0,0.0,86,0.00,,,0.00,Wunderground v.1.15,2013-04-03 13:19:00,
2013-04-03 07:24:00,27.1,23.2,30.02,East,99,0.0,0.0,85,0.00,,,0.00,Wunderground v.1.15,2013-04-03 13:24:00,
2013-04-03 07:29:00,27.1,23.2,30.02,East,99,0.0,0.0,85,0.00,,,0.00,Wunderground v.1.15,2013-04-03 13:29:00,
2013-04-03 07:34:00,27.1,23.2,30.02,East,99,0.0,0.0,85,0.00,,,0.00,Wunderground v.1.15,2013-04-03 13:34:00,
2013-04-03 07:44:00,27.4,23.5,30.03,East,99,0.0,0.0,85,0.00,,,0.00,Wunderground v.1.15,2013-04-03 13:44:00,
2013-04-03 07:54:00,27.7,23.8,30.03,East,99,0.0,0.0,85,0.00,,,0.00,Wunderground v.1.15,2013-04-03 13:54:00,
2013-04-03 07:59:00,27.9,23.7,30.03,East,99,0.0,0.0,84,0.00,,,0.00,Wunderground v.1.15,2013-04-03 13:59:00,
2013-04-03 08:09:00,28.4,24.2,30.03,East,99,0.0,0.0,84,0.00,,,0.00,Wunderground v.1.15,2013-04-03 14:09:00,
2013-04-03 08:14:00,28.8,24.3,30.04,East,99,0.0,0.0,83,0.00,,,0.00,Wunderground v.1.15,2013-04-03 14:14:00,
2013-04-03 08:19:00,29.2,24.7,30.04,East,99,0.0,0.0,83,0.00,,,0.00,Wunderground v.1.15,2013-04-03 14:19:00,
2013-04-03 08:29:00,29.9,25.1,30.04,East,99,0.0,0.0,82,0.00,,,0.00,Wunderground v.1.15,2013-04-03 14:29:00,
2013-04-03 08:39:00,30.7,25.9,30.04,East,99,0.0,0.0,82,0.00,,,0.00,Wunderground v.1.15,2013-04-03 14:39:00,
2013-04-03 08:44:00,31.0,25.9,30.04,East,99,0.0,0.0,81,0.00,,,0.00,Wunderground v.1.15,2013-04-03 14:44:00,
2013-04-03 08:49:00,31.4,25.9,30.04,North,11,0.0,0.0,80,0.00,,,0.00,Wunderground v.1.15,2013-04-03 14:49:00,
2013-04-03 08:54:00,31.9,26.4,30.04,North,11,0.0,0.0,80,0.00,,,0.00,Wunderground v.1.15,2013-04-03 14:54:00,
2013-04-03 08:59:00,32.3,26.8,30.04,North,11,0.0,0.0,80,0.00,,,0.00,Wunderground v.1.15,2013-04-03 14:59:00,
2013-04-03 09:09:00,33.0,27.2,30.04,NW,317,0.0,0.0,79,0.00,,,0.00,Wunderground v.1.15,2013-04-03 15:09:00,
2013-04-03 09:14:00,33.4,27.3,30.04,NNW,331,0.0,0.0,78,0.00,,,0.00,Wunderground v.1.15,2013-04-03 15:14:00,
2013-04-03 09:19:00,33.8,27.4,30.04,NW,315,0.0,0.0,77,0.00,,,0.00,Wunderground v.1.15,2013-04-03 15:19:00,
2013-04-03 09:24:00,34.1,27.3,30.04,NNW,327,0.0,0.0,76,0.00,,,0.00,Wunderground v.1.15,2013-04-03 15:24:00,
2013-04-03 09:29:00,34.5,27.4,30.04,NW,315,0.0,0.0,75,0.00,,,0.00,Wunderground v.1.15,2013-04-03 15:29:00,
2013-04-03 09:39:00,35.2,27.4,30.04,NW,325,0.0,0.0,73,0.00,,,0.00,Wunderground v.1.15,2013-04-03 15:39:00,
2013-04-03 09:44:00,35.5,27.7,30.04,NNW,338,0.0,0.0,73,0.00,,,0.00,Wunderground v.1.15,2013-04-03 15:44:00,
2013-04-03 09:49:00,35.8,27.7,30.04,NNW,334,0.0,0.0,72,0.00,,,0.00,Wunderground v.1.15,2013-04-03 15:49:00,
2013-04-03 09:54:00,36.1,27.3,30.04,NNW,330,1.0,3.0,70,0.00,,,0.00,Wunderground v.1.15,2013-04-03 15:54:00,
2013-04-03 09:59:00,36.4,27.2,30.04,NW,321,2.0,2.0,69,0.00,,,0.00,Wunderground v.1.15,2013-04-03 15:59:00,
2013-04-03 10:09:00,36.4,27.2,30.05,NNW,330,4.0,4.0,69,0.00,,,0.00,Wunderground v.1.15,2013-04-03 16:09:00,
2013-04-03 10:14:00,36.2,26.6,30.05,NW,317,3.0,4.0,68,0.00,,,0.00,Wunderground v.1.15,2013-04-03 16:14:00,
2013-04-03 10:19:00,36.1,26.9,30.05,NNW,336,2.0,2.0,69,0.00,,,0.00,Wunderground v.1.15,2013-04-03 16:19:00,
2013-04-03 10:39:00,36.9,26.6,30.05,NNW,328,2.0,4.0,66,0.00,,,0.00,Wunderground v.1.15,2013-04-03 16:39:00,
2013-04-03 10:44:00,37.2,26.9,30.05,NW,325,2.0,6.0,66,0.00,,,0.00,Wunderground v.1.15,2013-04-03 16:44:00,
2013-04-03 10:54:00,38.5,27.4,30.05,NNW,341,3.0,5.0,64,0.00,,,0.00,Wunderground v.1.15,2013-04-03 16:54:00,
2013-04-03 10:59:00,38.9,27.4,30.05,NNW,331,3.0,4.0,63,0.00,,,0.00,Wunderground v.1.15,2013-04-03 16:59:00,
2013-04-03 11:14:00,39.3,26.6,30.05,WNW,296,2.0,4.0,60,0.00,,,0.00,Wunderground v.1.15,2013-04-03 17:14:00,
2013-04-03 11:19:00,38.9,25.8,30.05,WSW,251,3.0,3.0,59,0.00,,,0.00,Wunderground v.1.15,2013-04-03 17:19:00,
2013-04-03 11:24:00,38.4,26.1,30.05,NW,306,2.0,3.0,61,0.00,,,0.00,Wunderground v.1.15,2013-04-03 17:24:00,
2013-04-03 11:29:00,38.1,26.2,30.05,NW,316,1.0,1.0,62,0.00,,,0.00,Wunderground v.1.15,2013-04-03 17:29:00,
2013-04-03 11:39:00,37.5,27.2,30.05,NNW,329,1.0,1.0,66,0.00,,,0.00,Wunderground v.1.15,2013-04-03 17:39:00,
2013-04-03 11:44:00,37.8,27.5,30.05,NNW,332,1.0,1.0,66,0.00,,,0.00,Wunderground v.1.15,2013-04-03 17:44:00,
2013-04-03 11:49:00,38.7,27.2,30.05,NNW,331,1.0,1.0,63,0.00,,,0.00,Wunderground v.1.15,2013-04-03 17:49:00,
2013-04-03 11:59:00,38.4,26.9,30.05,NW,319,0.0,0.0,63,0.00,,,0.00,Wunderground v.1.15,2013-04-03 17:59:00,
2013-04-03 12:09:00,38.8,26.5,30.05,North,350,1.0,1.0,61,0.00,,,0.00,Wunderground v.1.15,2013-04-03 18:09:00,
2013-04-03 12:14:00,39.8,24.9,30.05,West,274,1.0,1.0,55,0.00,,,0.00,Wunderground v.1.15,2013-04-03 18:14:00,
2013-04-03 12:19:00,40.5,25.1,30.04,NNW,327,1.0,1.0,54,0.00,,,0.00,Wunderground v.1.15,2013-04-03 18:19:00,
2013-04-03 12:24:00,40.9,25.5,30.04,NNW,346,1.0,1.0,54,0.00,,,0.00,Wunderground v.1.15,2013-04-03 18:24:00,
2013-04-03 12:29:00,41.5,23.7,30.04,NNW,337,2.0,5.0,49,0.00,,,0.00,Wunderground v.1.15,2013-04-03 18:29:00,
2013-04-03 12:39:00,41.6,24.3,30.05,NW,326,3.0,3.0,50,0.00,,,0.00,Wunderground v.1.15,2013-04-03 18:39:00,
2013-04-03 12:44:00,41.3,24.0,30.05,West,267,3.0,3.0,50,0.00,,,0.00,Wunderground v.1.15,2013-04-03 18:44:00,
2013-04-03 12:49:00,41.5,24.2,30.04,NNW,342,2.0,2.0,50,0.00,,,0.00,Wunderground v.1.15,2013-04-03 18:49:00,
2013-04-03 13:00:00,42.2,23.9,30.05,NW,319,3.0,3.0,48,0.00,,,0.00,Wunderground v.1.15,2013-04-03 19:00:00,
2013-04-03 13:09:00,42.4,24.1,30.05,West,260,2.0,2.0,48,0.00,,,0.00,Wunderground v.1.15,2013-04-03 19:09:00,
2013-04-03 13:14:00,42.7,24.4,30.05,WNW,294,2.0,4.0,48,0.00,,,0.00,Wunderground v.1.15,2013-04-03 19:14:00,
2013-04-03 13:19:00,42.7,24.4,30.05,NW,320,2.0,2.0,48,0.00,,,0.00,Wunderground v.1.15,2013-04-03 19:19:00,
2013-04-03 13:24:00,42.9,24.5,30.04,West,269,1.0,2.0,48,0.00,,,0.00,Wunderground v.1.15,2013-04-03 19:24:00,
2013-04-03 13:34:00,44.1,23.6,30.04,NW,311,2.0,6.0,44,0.00,,,0.00,Wunderground v.1.15,2013-04-03 19:34:00,
2013-04-03 13:39:00,43.5,23.5,30.04,NW,306,2.0,2.0,45,0.00,,,0.00,Wunderground v.1.15,2013-04-03 19:39:00,
2013-04-03 13:44:00,43.4,23.4,30.05,NNW,338,2.0,7.0,45,0.00,,,0.00,Wunderground v.1.15,2013-04-03 19:44:00,
2013-04-03 13:54:00,43.7,25.3,30.04,WNW,300,2.0,2.0,48,0.00,,,0.00,Wunderground v.1.15,2013-04-03 19:54:00,
2013-04-03 14:00:00,44.7,23.5,30.04,NNW,338,2.0,2.0,43,0.00,,,0.00,Wunderground v.1.15,2013-04-03 20:00:00,
2013-04-03 14:09:00,43.0,25.1,30.06,WNW,296,4.0,5.0,49,0.00,,,0.00,Wunderground v.1.15,2013-04-03 20:09:00,
2013-04-03 14:14:00,42.6,25.2,30.05,NNW,330,4.0,5.0,50,0.00,,,0.00,Wunderground v.1.15,2013-04-03 20:14:00,
2013-04-03 14:19:00,43.2,25.3,30.05,WNW,290,2.0,4.0,49,0.00,,,0.00,Wunderground v.1.15,2013-04-03 20:19:00,
2013-04-03 14:24:00,43.9,25.5,30.05,NNW,339,1.0,6.0,48,0.00,,,0.00,Wunderground v.1.15,2013-04-03 20:24:00,
2013-04-03 14:29:00,44.7,25.7,30.04,NNW,342,2.0,2.0,47,0.00,,,0.00,Wunderground v.1.15,2013-04-03 20:29:00,
2013-04-03 14:39:00,44.5,24.5,30.04,SSW,209,3.0,3.0,45,0.00,,,0.00,Wunderground v.1.15,2013-04-03 20:39:00,
2013-04-03 14:49:00,45.6,23.8,30.04,West,264,2.0,4.0,42,0.00,,,0.00,Wunderground v.1.15,2013-04-03 20:49:00,
2013-04-03 14:54:00,45.7,23.3,30.04,WNW,290,2.0,4.0,41,0.00,,,0.00,Wunderground v.1.15,2013-04-03 20:54:00,
2013-04-03 14:59:00,45.5,22.5,30.04,NNW,341,2.0,4.0,40,0.00,,,0.00,Wunderground v.1.15,2013-04-03 20:59:00,
2013-04-03 15:09:00,45.0,23.8,30.04,NNW,331,3.0,5.0,43,0.00,,,0.00,Wunderground v.1.15,2013-04-03 21:09:00,
2013-04-03 15:14:00,45.7,23.9,30.04,NW,325,1.0,5.0,42,0.00,,,0.00,Wunderground v.1.15,2013-04-03 21:14:00,
2013-04-03 15:19:00,45.6,23.8,30.04,NNW,333,1.0,4.0,42,0.00,,,0.00,Wunderground v.1.15,2013-04-03 21:19:00,
2013-04-03 15:24:00,45.1,23.9,30.04,WNW,299,3.0,4.0,43,0.00,,,0.00,Wunderground v.1.15,2013-04-03 21:24:00,
2013-04-03 15:29:00,44.4,24.9,30.05,NW,319,4.0,4.0,46,0.00,,,0.00,Wunderground v.1.15,2013-04-03 21:29:00,
2013-04-03 15:39:00,44.3,25.8,30.04,WNW,288,2.0,2.0,48,0.00,,,0.00,Wunderground v.1.15,2013-04-03 21:39:00,
2013-04-03 15:44:00,45.0,24.9,30.04,South,175,1.0,2.0,45,0.00,,,0.00,Wunderground v.1.15,2013-04-03 21:44:00,
2013-04-03 15:49:00,46.0,24.7,30.03,NW,314,2.0,2.0,43,0.00,,,0.00,Wunderground v.1.15,2013-04-03 21:49:00,
2013-04-03 15:59:00,47.3,24.8,30.03,NW,311,2.0,2.0,41,0.00,,,0.00,Wunderground v.1.15,2013-04-03 21:59:00,
2013-04-03 16:09:00,46.9,24.4,30.03,NNW,334,5.0,8.0,41,0.00,,,0.00,Wunderground v.1.15,2013-04-03 22:09:00,
2013-04-03 16:14:00,46.3,24.4,30.03,NW,319,6.0,8.0,42,0.00,,,0.00,Wunderground v.1.15,2013-04-03 22:14:00,
2013-04-03 16:24:00,45.8,25.1,30.03,North,350,2.0,7.0,44,0.00,,,0.00,Wunderground v.1.15,2013-04-03 22:24:00,
2013-04-03 16:29:00,46.2,24.9,30.04,NW,325,2.0,2.0,43,0.00,,,0.00,Wunderground v.1.15,2013-04-03 22:29:00,
2013-04-03 16:39:00,46.0,24.7,30.04,NW,310,4.0,4.0,43,0.00,,,0.00,Wunderground v.1.15,2013-04-03 22:39:00,
2013-04-03 16:49:00,46.2,25.5,30.04,NW,323,6.0,6.0,44,0.00,,,0.00,Wunderground v.1.15,2013-04-03 22:49:00,
2013-04-03 16:54:00,46.1,25.9,30.04,NW,320,6.0,8.0,45,0.00,,,0.00,Wunderground v.1.15,2013-04-03 22:54:00,
2013-04-03 16:59:00,46.0,27.4,30.04,West,275,5.0,5.0,48,0.00,,,0.00,Wunderground v.1.15,2013-04-03 22:59:00,
2013-04-03 17:09:00,45.8,26.7,30.05,NNW,338,3.0,3.0,47,0.00,,,0.00,Wunderground v.1.15,2013-04-03 23:09:00,
2013-04-03 17:19:00,44.9,27.8,30.05,NNW,335,6.0,6.0,51,0.00,,,0.00,Wunderground v.1.15,2013-04-03 23:19:00,
2013-04-03 17:29:00,44.9,27.4,30.05,NNW,340,3.0,5.0,50,0.00,,,0.00,Wunderground v.1.15,2013-04-03 23:29:00,
2013-04-03 17:39:00,45.0,27.0,30.05,NW,324,1.0,3.0,49,0.00,,,0.00,Wunderground v.1.15,2013-04-03 23:39:00,
2013-04-03 17:44:00,45.4,26.8,30.05,NW,321,2.0,3.0,48,0.00,,,0.00,Wunderground v.1.15,2013-04-03 23:44:00,
2013-04-03 17:49:00,45.5,25.9,30.05,NNW,332,4.0,4.0,46,0.00,,,0.00,Wunderground v.1.15,2013-04-03 23:49:00,
2013-04-03 17:54:00,45.6,26.5,30.05,NNW,331,3.0,4.0,47,0.00,,,0.00,Wunderground v.1.15,2013-04-03 23:54:00,
2013-04-03 18:00:00,45.8,26.2,30.05,NNW,340,3.0,3.0,46,0.00,,,0.00,Wunderground v.1.15,2013-04-04 00:00:00,
2013-04-03 18:09:00,46.0,25.8,30.05,NNW,330,4.0,4.0,45,0.00,,,0.00,Wunderground v.1.15,2013-04-04 00:09:00,
2013-04-03 18:14:00,45.8,26.2,30.05,NNW,331,3.0,4.0,46,0.00,,,0.00,Wunderground v.1.15,2013-04-04 00:14:00,
2013-04-03 18:19:00,44.9,26.4,30.05,SW,222,1.0,1.0,48,0.00,,,0.00,Wunderground v.1.15,2013-04-04 00:19:00,
2013-04-03 18:24:00,44.3,26.3,30.05,West,281,1.0,1.0,49,0.00,,,0.00,Wunderground v.1.15,2013-04-04 00:24:00,
2013-04-03 18:29:00,43.4,26.9,30.06,WSW,254,0.0,0.0,52,0.00,,,0.00,Wunderground v.1.15,2013-04-04 00:29:00,
2013-04-03 18:39:00,41.8,27.2,30.07,WSW,254,0.0,0.0,56,0.00,,,0.00,Wunderground v.1.15,2013-04-04 00:39:00,
2013-04-03 18:44:00,41.4,27.3,30.07,WSW,254,0.0,0.0,57,0.00,,,0.00,Wunderground v.1.15,2013-04-04 00:44:00,
2013-04-03 18:49:00,40.8,27.6,30.08,WSW,254,0.0,0.0,59,0.00,,,0.00,Wunderground v.1.15,2013-04-04 00:49:00,
2013-04-03 18:54:00,40.2,27.8,30.08,WSW,254,0.0,0.0,61,0.00,,,0.00,Wunderground v.1.15,2013-04-04 00:54:00,
2013-04-03 18:59:00,39.7,27.7,30.08,WSW,254,0.0,0.0,62,0.00,,,0.00,Wunderground v.1.15,2013-04-04 00:59:00,
2013-04-03 19:09:00,38.8,27.7,30.09,WSW,254,0.0,0.0,64,0.00,,,0.00,Wunderground v.1.15,2013-04-04 01:09:00,
2013-04-03 19:14:00,38.1,27.4,30.09,WSW,254,0.0,0.0,65,0.00,,,0.00,Wunderground v.1.15,2013-04-04 01:14:00,
2013-04-03 19:19:00,37.7,27.4,30.09,WSW,254,0.0,0.0,66,0.00,,,0.00,Wunderground v.1.15,2013-04-04 01:19:00,
2013-04-03 19:24:00,37.2,27.2,30.09,WSW,254,0.0,0.0,67,0.00,,,0.00,Wunderground v.1.15,2013-04-04 01:24:00,
2013-04-03 19:29:00,36.7,26.8,30.09,WSW,254,0.0,0.0,67,0.00,,,0.00,Wunderground v.1.15,2013-04-04 01:29:00,
2013-04-03 19:39:00,36.2,26.3,30.09,WSW,254,0.0,0.0,67,0.00,,,0.00,Wunderground v.1.15,2013-04-04 01:39:00,
2013-04-03 19:44:00,35.9,26.0,30.09,WSW,254,0.0,0.0,67,0.00,,,0.00,Wunderground v.1.15,2013-04-04 01:44:00,
2013-04-03 19:49:00,35.2,26.4,30.10,WSW,254,0.0,0.0,70,0.00,,,0.00,Wunderground v.1.15,2013-04-04 01:49:00,
2013-04-03 19:54:00,34.9,25.8,30.10,WSW,254,0.0,0.0,69,0.00,,,0.00,Wunderground v.1.15,2013-04-04 01:54:00,
2013-04-03 19:59:00,34.7,25.9,30.10,WSW,254,0.0,0.0,70,0.00,,,0.00,Wunderground v.1.15,2013-04-04 01:59:00,
2013-04-03 20:09:00,34.0,25.6,30.11,WSW,254,0.0,0.0,71,0.00,,,0.00,Wunderground v.1.15,2013-04-04 02:09:00,
2013-04-03 20:19:00,33.5,25.1,30.11,WSW,254,0.0,0.0,71,0.00,,,0.00,Wunderground v.1.15,2013-04-04 02:19:00,
2013-04-03 20:24:00,33.5,25.1,30.12,WSW,254,0.0,0.0,71,0.00,,,0.00,Wunderground v.1.15,2013-04-04 02:24:00,
2013-04-03 20:34:00,33.9,25.8,30.13,WSW,254,0.0,0.0,72,0.00,,,0.00,Wunderground v.1.15,2013-04-04 02:34:00,
2013-04-03 20:39:00,34.1,26.0,30.13,WSW,254,0.0,0.0,72,0.00,,,0.00,Wunderground v.1.15,2013-04-04 02:39:00,
2013-04-03 20:44:00,34.1,26.0,30.13,WSW,254,0.0,0.0,72,0.00,,,0.00,Wunderground v.1.15,2013-04-04 02:44:00,
2013-04-03 20:49:00,34.2,26.1,30.13,East,98,0.0,0.0,72,0.00,,,0.00,Wunderground v.1.15,2013-04-04 02:49:00,
2013-04-03 20:59:00,34.4,26.6,30.14,ESE,113,0.0,0.0,73,0.00,,,0.00,Wunderground v.1.15,2013-04-04 02:59:00,
2013-04-03 21:09:00,34.5,27.1,30.15,ESE,113,0.0,0.0,74,0.00,,,0.00,Wunderground v.1.15,2013-04-04 03:09:00,
2013-04-03 21:14:00,34.5,27.4,30.15,ESE,113,0.0,0.0,75,0.00,,,0.00,Wunderground v.1.15,2013-04-04 03:14:00,
2013-04-03 21:19:00,34.3,26.9,30.15,ESE,113,0.0,0.0,74,0.00,,,0.00,Wunderground v.1.15,2013-04-04 03:19:00,
2013-04-03 21:24:00,34.0,26.9,30.15,ESE,113,0.0,0.0,75,0.00,,,0.00,Wunderground v.1.15,2013-04-04 03:24:00,
2013-04-03 21:34:00,33.6,26.8,30.15,ESE,113,0.0,0.0,76,0.00,,,0.00,Wunderground v.1.15,2013-04-04 03:34:00,
2013-04-03 21:39:00,33.5,26.7,30.15,ESE,113,0.0,0.0,76,0.00,,,0.00,Wunderground v.1.15,2013-04-04 03:39:00,
2013-04-03 21:44:00,33.3,26.5,30.15,ESE,113,0.0,0.0,76,0.00,,,0.00,Wunderground v.1.15,2013-04-04 03:44:00,
2013-04-03 21:49:00,33.1,26.7,30.16,ESE,113,0.0,0.0,77,0.00,,,0.00,Wunderground v.1.15,2013-04-04 03:49:00,
2013-04-03 21:59:00,32.6,26.5,30.16,ESE,113,0.0,0.0,78,0.00,,,0.00,Wunderground v.1.15,2013-04-04 03:59:00,
2013-04-03 22:04:00,32.4,26.3,30.16,ESE,113,0.0,0.0,78,0.00,,,0.00,Wunderground v.1.15,2013-04-04 04:04:00,
2013-04-03 22:09:00,32.1,26.3,30.16,ESE,113,0.0,0.0,79,0.00,,,0.00,Wunderground v.1.15,2013-04-04 04:09:00,
2013-04-03 22:14:00,31.9,26.1,30.16,ESE,113,0.0,0.0,79,0.00,,,0.00,Wunderground v.1.15,2013-04-04 04:14:00,
2013-04-03 22:19:00,31.8,26.0,30.17,ESE,104,0.0,0.0,79,0.00,,,0.00,Wunderground v.1.15,2013-04-04 04:19:00,
2013-04-03 22:24:00,31.5,25.7,30.17,ESE,104,0.0,0.0,79,0.00,,,0.00,Wunderground v.1.15,2013-04-04 04:24:00,
2013-04-03 22:29:00,31.2,25.7,30.17,ESE,104,0.0,0.0,80,0.00,,,0.00,Wunderground v.1.15,2013-04-04 04:29:00,
2013-04-03 22:39:00,30.7,25.6,30.17,ESE,104,0.0,0.0,81,0.00,,,0.00,Wunderground v.1.15,2013-04-04 04:39:00,
2013-04-03 22:44:00,30.4,25.3,30.17,ESE,104,0.0,0.0,81,0.00,,,0.00,Wunderground v.1.15,2013-04-04 04:44:00,
2013-04-03 22:49:00,30.4,25.3,30.17,ESE,104,0.0,0.0,81,0.00,,,0.00,Wunderground v.1.15,2013-04-04 04:49:00,
2013-04-03 22:54:00,30.3,25.2,30.17,East,94,0.0,0.0,81,0.00,,,0.00,Wunderground v.1.15,2013-04-04 04:54:00,
2013-04-03 22:59:00,30.2,25.1,30.18,East,94,0.0,0.0,81,0.00,,,0.00,Wunderground v.1.15,2013-04-04 04:59:00,
2013-04-03 23:09:00,30.0,25.2,30.18,East,94,0.0,0.0,82,0.00,,,0.00,Wunderground v.1.15,2013-04-04 05:09:00,
2013-04-03 23:19:00,29.9,25.1,30.19,South,170,0.0,0.0,82,0.00,,,0.00,Wunderground v.1.15,2013-04-04 05:19:00,
2013-04-03 23:24:00,29.8,25.0,30.19,South,170,0.0,0.0,82,0.00,,,0.00,Wunderground v.1.15,2013-04-04 05:24:00,
2013-04-03 23:29:00,29.7,24.9,30.19,South,170,0.0,0.0,82,0.00,,,0.00,Wunderground v.1.15,2013-04-04 05:29:00,
2013-04-03 23:34:00,29.7,24.9,30.19,South,170,0.0,0.0,82,0.00,,,0.00,Wunderground v.1.15,2013-04-04 05:34:00,
2013-04-03 23:39:00,29.7,24.9,30.19,ENE,65,0.0,0.0,82,0.00,,,0.00,Wunderground v.1.15,2013-04-04 05:39:00,
2013-04-03 23:44:00,29.7,24.9,30.19,SE,126,0.0,0.0,82,0.00,,,0.00,Wunderground v.1.15,2013-04-04 05:44:00,
2013-04-03 23:54:00,29.6,24.8,30.20,SE,126,0.0,0.0,82,0.00,,,0.00,Wunderground v.1.15,2013-04-04 05:54:00,
2013-04-03 23:59:00,29.4,24.6,30.19,SE,126,0.0,0.0,82,0.00,,,0.00,Wunderground v.1.15,2013-04-04 05:59:00,